Borden, Canada
Current Conditions -  °F | °C
As of 3:00 AM on Monday 20 Oct 2014 (Local Time) from CYQV Reporting Station
Clear Clear  
Wind Chill: 35°   Ceiling: Unl
Heat Index: 41°   Visibility: 9mi
Dew Point: 36°   Wind: 9mph
Humidity: 81%   Direction: 160°SSE
Pressure: 29.95"   Gusts: NA
Location:  52.4°N, 102.23°W
Report Text: CYQV 200900Z AUTO 16008KT 9SM CLR 05/02 A2995 RMK SLP153
Loading
Personal Weather Stations






























Interactive Weather Map
Tropical Storm Tracking
New forecast layout! Learn more

10-Day Weather Forecast

Advertisements
Track Severe Weather on mobile